ENVA/TRD METAR and TAF weather

Enter ICAO airport designator
Station Type Date Time Source
ENVA METAR 2018/01/19 17:20 UTC NOAA

ENVA 191720Z 11005KT 080V150 CAVOK M06/M11 Q0999 NOSIG RMK WIND 670FT 13007KT


Station Type Date Time Source
ENVA Decoded METAR 2018/01/19 17:20 UTC NOAA

Trondheim / Vaernes, Norway (ENVA) 63-28N 010-56E 17M
Jan 19, 2018 - 12:20 PM EST / 2018.01.19 1720 UTC
Wind: from the ESE (110 degrees) at 6 MPH (5 KT) (direction variable):0
Visibility: greater than 7 mile(s):0
Temperature: 21 F (-6 C)
Windchill: 14 F (-10 C):1
Dew Point: 12 F (-11 C)
Relative Humidity: 67%
Pressure (altimeter): 29.50 in. Hg (0999 hPa)
ob: ENVA 191720Z 11005KT 080V150 CAVOK M06/M11 Q0999 NOSIG RMK WIND 670FT 13007KT
cycle: 17

Station Type Date Time Source
ENVA TAF 2018/01/19 12:59 UTC NOAA

TAF ENVA 191100Z 1912/2012 09007KT CAVOK PROB40
TEMPO 1912/2012 11018KT


Example: see airport list